createdAt,value
2023-05-03T00:00:48.208Z,6.94
2023-05-03T00:01:48.204Z,6.87
2023-05-03T00:02:47.619Z,6.83
2023-05-03T00:03:48.178Z,6.81
2023-05-03T00:04:48.207Z,6.83
2023-05-03T00:05:48.279Z,6.83
2023-05-03T00:06:48.220Z,6.80
2023-05-03T00:07:47.462Z,6.76
2023-05-03T00:08:47.432Z,6.72
2023-05-03T00:09:48.111Z,-39.94
2023-05-03T00:10:47.406Z,-40.00
2023-05-03T00:11:48.074Z,-40.00
2023-05-03T00:12:47.400Z,-40.00
2023-05-03T00:13:48.078Z,-40.00
2023-05-03T00:14:48.058Z,-40.00
2023-05-03T00:15:48.050Z,-40.00
2023-05-03T00:16:48.055Z,-40.00
2023-05-03T00:17:48.070Z,-40.00
2023-05-03T00:18:48.445Z,-39.94
2023-05-03T00:19:48.005Z,-40.00
2023-05-03T00:20:47.994Z,-39.94
2023-05-03T00:21:47.966Z,-40.00
2023-05-03T00:22:47.315Z,-40.00
2023-05-03T00:23:47.963Z,-40.00
2023-05-03T00:24:47.267Z,-40.00
2023-05-03T00:25:47.260Z,-40.00
2023-05-03T00:26:47.910Z,-40.00
2023-05-03T00:27:47.914Z,-40.00
2023-05-03T00:28:47.908Z,-40.00
2023-05-03T00:29:47.898Z,-40.00
2023-05-03T00:30:47.230Z,-40.00
2023-05-03T00:31:47.224Z,-39.94
2023-05-03T00:32:47.937Z,-29.69
2023-05-03T00:33:47.863Z,-40.00
2023-05-03T00:34:47.850Z,-40.00
2023-05-03T00:35:47.836Z,-40.00
2023-05-03T00:36:47.805Z,-40.00
2023-05-03T00:37:47.143Z,-40.00
2023-05-03T00:38:47.800Z,-40.00
2023-05-03T00:39:47.790Z,-39.94
2023-05-03T00:40:47.779Z,-40.00
2023-05-03T00:41:47.111Z,-40.00
2023-05-03T00:42:47.115Z,-40.00
2023-05-03T00:43:47.753Z,-40.00
2023-05-03T00:44:47.743Z,-40.00
2023-05-03T00:45:47.731Z,6.46
2023-05-03T00:46:47.728Z,6.44
2023-05-03T00:47:47.742Z,6.36
2023-05-03T00:48:47.022Z,6.32
2023-05-03T00:49:47.000Z,6.32
2023-05-03T00:50:46.982Z,6.30
2023-05-03T00:51:47.647Z,6.30
2023-05-03T00:52:47.651Z,6.29
2023-05-03T00:53:47.894Z,6.30
2023-05-03T00:54:46.934Z,6.29
2023-05-03T00:55:47.627Z,6.22
2023-05-03T00:56:51.534Z,6.14
2023-05-03T00:57:47.902Z,6.11
2023-05-03T00:58:46.938Z,6.11
2023-05-03T00:59:46.913Z,6.14
2023-05-03T01:00:46.898Z,6.18
2023-05-03T01:01:46.934Z,6.14
2023-05-03T01:02:47.632Z,6.16
2023-05-03T01:03:47.719Z,6.13
2023-05-03T01:04:46.857Z,6.14
2023-05-03T01:05:46.842Z,6.14
2023-05-03T01:06:46.919Z,6.16
2023-05-03T01:07:46.812Z,6.19
2023-05-03T01:08:47.486Z,6.22
2023-05-03T01:09:46.800Z,-39.94
2023-05-03T01:10:46.784Z,-40.00
2023-05-03T01:11:48.252Z,-40.00
2023-05-03T01:12:46.734Z,-40.00
2023-05-03T01:13:47.435Z,-40.00
2023-05-03T01:14:47.427Z,-40.00
2023-05-03T01:15:47.423Z,-40.00
2023-05-03T01:16:47.377Z,-40.00
2023-05-03T01:17:46.763Z,-40.00
2023-05-03T01:18:47.397Z,-40.00
2023-05-03T01:19:47.386Z,-40.00
2023-05-03T01:20:47.373Z,-40.00
2023-05-03T01:21:47.351Z,-40.00
2023-05-03T01:22:46.650Z,-39.94
2023-05-03T01:23:46.644Z,-39.94
2023-05-03T01:24:46.644Z,-40.00
2023-05-03T01:25:46.642Z,-39.94
2023-05-03T01:26:47.294Z,-39.94
2023-05-03T01:27:47.296Z,-39.94
2023-05-03T01:28:47.299Z,-40.00
2023-05-03T01:29:46.599Z,-40.00
2023-05-03T01:30:47.254Z,-40.00
2023-05-03T01:31:47.288Z,-40.00
2023-05-03T01:32:47.279Z,-40.00
2023-05-03T01:33:47.242Z,5.74
2023-05-03T01:34:47.210Z,5.71
2023-05-03T01:35:47.202Z,5.68
2023-05-03T01:36:47.175Z,5.68
2023-05-03T01:37:47.173Z,5.66
2023-05-03T01:38:47.163Z,5.66
2023-05-03T01:39:47.153Z,5.64
2023-05-03T01:40:46.449Z,5.63
2023-05-03T01:41:47.122Z,5.64
2023-05-03T01:42:46.437Z,5.64
2023-05-03T01:43:47.381Z,5.63
2023-05-03T01:44:47.100Z,5.60
2023-05-03T01:45:46.451Z,5.60
2023-05-03T01:46:47.071Z,5.59
2023-05-03T01:47:47.364Z,5.56
2023-05-03T01:48:47.067Z,5.57
2023-05-03T01:49:47.056Z,5.55
2023-05-03T01:50:47.160Z,5.53
2023-05-03T01:51:47.012Z,5.52
2023-05-03T01:52:47.022Z,5.49
2023-05-03T01:53:47.010Z,5.48
2023-05-03T01:54:47.277Z,5.46
2023-05-03T01:55:46.283Z,5.45
2023-05-03T01:56:47.224Z,-39.94
2023-05-03T01:57:46.259Z,-40.00
2023-05-03T01:58:46.269Z,-40.00
2023-05-03T01:59:47.206Z,-40.00
2023-05-03T02:00:47.220Z,-40.00
2023-05-03T02:01:48.187Z,-40.00
2023-05-03T02:02:46.253Z,-40.00
2023-05-03T02:03:46.228Z,-40.00
2023-05-03T02:04:46.258Z,-40.00
2023-05-03T02:05:46.878Z,-40.00
2023-05-03T02:06:47.002Z,-40.00
2023-05-03T02:07:46.854Z,-40.00
2023-05-03T02:08:46.850Z,-40.00
2023-05-03T02:09:46.840Z,-40.00
2023-05-03T02:10:46.823Z,-40.00
2023-05-03T02:11:46.806Z,-40.00
2023-05-03T02:12:47.066Z,-40.00
2023-05-03T02:13:46.807Z,-40.00
2023-05-03T02:14:47.041Z,-40.00
2023-05-03T02:15:46.774Z,-40.00
2023-05-03T02:16:47.074Z,-40.00
2023-05-03T02:17:46.797Z,-40.00
2023-05-03T02:18:47.003Z,-40.00
2023-05-03T02:19:46.991Z,-39.94
2023-05-03T02:20:46.993Z,-40.00
2023-05-03T02:21:46.998Z,-40.00
2023-05-03T02:22:46.958Z,-40.00
2023-05-03T02:23:46.953Z,-40.00
2023-05-03T02:24:46.942Z,-40.00
2023-05-03T02:25:46.946Z,-40.00
2023-05-03T02:26:46.924Z,-40.00
2023-05-03T02:27:46.643Z,-40.00
2023-05-03T02:28:46.640Z,5.12
2023-05-03T02:29:46.628Z,5.12
2023-05-03T02:30:46.937Z,5.10
2023-05-03T02:31:46.863Z,5.10
2023-05-03T02:32:46.953Z,5.07
2023-05-03T02:33:46.590Z,5.07
2023-05-03T02:34:46.571Z,5.10
2023-05-03T02:35:46.546Z,5.07
2023-05-03T02:36:46.812Z,5.07
2023-05-03T02:37:46.791Z,5.02
2023-05-03T02:38:46.799Z,-39.94
2023-05-03T02:39:46.513Z,-40.00
2023-05-03T02:40:46.496Z,-40.00
2023-05-03T02:41:46.498Z,-40.00
2023-05-03T02:42:46.776Z,-40.00
2023-05-03T02:43:46.716Z,-39.94
2023-05-03T02:44:46.510Z,-40.00
2023-05-03T02:45:46.440Z,-39.94
2023-05-03T02:46:46.531Z,-40.00
2023-05-03T02:47:46.729Z,-40.00
2023-05-03T02:48:46.693Z,-39.94
2023-05-03T02:49:46.408Z,-40.00
2023-05-03T02:50:46.672Z,-40.00
2023-05-03T02:51:46.674Z,-40.00
2023-05-03T02:52:46.642Z,-40.00
2023-05-03T02:53:46.649Z,4.69
2023-05-03T02:54:46.631Z,4.65
2023-05-03T02:55:46.617Z,4.62
2023-05-03T02:56:46.615Z,4.62
2023-05-03T02:57:46.587Z,4.59
2023-05-03T02:58:46.583Z,4.58
2023-05-03T02:59:46.562Z,4.57
2023-05-03T03:00:46.566Z,4.54
2023-05-03T03:01:46.635Z,4.52
2023-05-03T03:02:46.652Z,4.50
2023-05-03T03:03:46.585Z,4.46
2023-05-03T03:04:46.511Z,4.44
2023-05-03T03:05:46.528Z,4.42
2023-05-03T03:06:46.615Z,-39.94
2023-05-03T03:07:46.497Z,-39.94
2023-05-03T03:08:46.477Z,-40.00
2023-05-03T03:09:46.200Z,-40.00
2023-05-03T03:10:46.464Z,-40.00
2023-05-03T03:11:46.162Z,-40.00
2023-05-03T03:12:46.434Z,-40.00
2023-05-03T03:13:46.412Z,-40.00
2023-05-03T03:14:46.149Z,-39.94
2023-05-03T03:15:46.467Z,-40.00
2023-05-03T03:16:45.458Z,-40.00
2023-05-03T03:17:46.185Z,-40.00
2023-05-03T03:18:46.106Z,-39.94
2023-05-03T03:19:46.104Z,-40.00
2023-05-03T03:20:46.087Z,-39.94
2023-05-03T03:21:46.055Z,-39.36
2023-05-03T03:22:46.326Z,-39.94
2023-05-03T03:23:46.315Z,4.62
2023-05-03T03:24:46.299Z,4.61
2023-05-03T03:25:46.298Z,4.62
2023-05-03T03:26:46.288Z,4.62
2023-05-03T03:27:46.013Z,4.59
2023-05-03T03:28:46.011Z,4.61
2023-05-03T03:29:46.248Z,4.57
2023-05-03T03:30:46.244Z,4.54
2023-05-03T03:31:45.985Z,4.47
2023-05-03T03:32:45.302Z,4.42
2023-05-03T03:33:45.945Z,4.36
2023-05-03T03:34:45.940Z,4.33
2023-05-03T03:35:45.925Z,4.28
2023-05-03T03:36:45.894Z,-39.94
2023-05-03T03:37:45.909Z,-40.00
2023-05-03T03:38:46.157Z,-39.94
2023-05-03T03:39:45.883Z,-40.00
2023-05-03T03:40:45.877Z,-39.36
2023-05-03T03:41:46.133Z,-40.00
2023-05-03T03:42:46.098Z,-40.00
2023-05-03T03:43:45.843Z,-40.00
2023-05-03T03:44:45.827Z,-40.00
2023-05-03T03:45:46.076Z,-40.00
2023-05-03T03:46:45.810Z,-39.96
2023-05-03T03:47:46.147Z,-40.00
2023-05-03T03:48:45.783Z,-40.00
2023-05-03T03:49:45.087Z,-40.00
2023-05-03T03:50:46.014Z,-40.00
2023-05-03T03:51:46.025Z,-40.00
2023-05-03T03:52:45.761Z,-40.00
2023-05-03T03:53:45.995Z,-40.00
2023-05-03T03:54:45.994Z,-40.00
2023-05-03T03:55:45.714Z,-40.00
2023-05-03T03:56:45.994Z,-40.00
2023-05-03T03:57:45.956Z,-40.00
2023-05-03T03:58:45.944Z,4.36
2023-05-03T03:59:45.935Z,4.32
2023-05-03T04:00:45.935Z,4.29
2023-05-03T04:01:45.965Z,4.28
2023-05-03T04:02:47.307Z,4.24
2023-05-03T04:03:46.022Z,-39.94
2023-05-03T04:04:45.618Z,-40.00
2023-05-03T04:05:45.874Z,-40.00
2023-05-03T04:06:45.944Z,-40.00
2023-05-03T04:07:45.835Z,-40.00
2023-05-03T04:08:45.821Z,-40.00
2023-05-03T04:09:45.815Z,-39.94
2023-05-03T04:10:45.798Z,-40.00
2023-05-03T04:11:45.816Z,-40.00
2023-05-03T04:12:45.546Z,-40.00
2023-05-03T04:13:45.519Z,-40.00
2023-05-03T04:14:45.505Z,-40.00
2023-05-03T04:15:45.497Z,-40.00
2023-05-03T04:16:45.483Z,-40.00
2023-05-03T04:17:45.535Z,-40.00
2023-05-03T04:18:44.786Z,-39.94
2023-05-03T04:19:44.778Z,-40.00
2023-05-03T04:20:44.760Z,-40.00
2023-05-03T04:21:45.411Z,-40.00
2023-05-03T04:22:45.423Z,-40.00
2023-05-03T04:23:45.417Z,-40.00
2023-05-03T04:24:44.721Z,-40.00
2023-05-03T04:25:44.710Z,-40.00
2023-05-03T04:26:44.725Z,-40.00
2023-05-03T04:27:44.691Z,-40.00
2023-05-03T04:28:44.690Z,-40.00
2023-05-03T04:29:45.360Z,-40.00
2023-05-03T04:30:44.761Z,-40.00
2023-05-03T04:31:44.666Z,-40.00
2023-05-03T04:32:44.759Z,-40.00
2023-05-03T04:33:45.305Z,-40.00
2023-05-03T04:34:45.170Z,-39.94
2023-05-03T04:35:45.284Z,-40.00
2023-05-03T04:36:45.254Z,-40.00
2023-05-03T04:37:44.585Z,-40.00
2023-05-03T04:38:45.258Z,-40.00
2023-05-03T04:39:45.247Z,-40.00
2023-05-03T04:40:44.603Z,4.75
2023-05-03T04:41:45.210Z,4.86
2023-05-03T04:42:45.214Z,4.98
2023-05-03T04:43:45.203Z,5.09
2023-05-03T04:44:44.502Z,5.19
2023-05-03T04:45:45.942Z,5.30
2023-05-03T04:46:44.576Z,5.40
2023-05-03T04:47:45.208Z,5.52
2023-05-03T04:48:45.151Z,-39.94
2023-05-03T04:49:45.137Z,-40.00
2023-05-03T04:50:45.122Z,-40.00
2023-05-03T04:51:45.101Z,-40.00
2023-05-03T04:52:45.108Z,-40.00
2023-05-03T04:53:45.852Z,-39.94
2023-05-03T04:54:45.080Z,-39.94
2023-05-03T04:55:45.075Z,-40.00
2023-05-03T04:56:45.045Z,-40.00
2023-05-03T04:57:45.050Z,-40.00
2023-05-03T04:58:46.296Z,-40.00
2023-05-03T04:59:44.332Z,-40.00
2023-05-03T05:00:44.337Z,-40.00
2023-05-03T05:01:44.420Z,-40.00
2023-05-03T05:02:45.119Z,7.12
2023-05-03T05:03:44.438Z,7.22
2023-05-03T05:04:45.002Z,7.31
2023-05-03T05:05:44.293Z,7.35
2023-05-03T05:06:44.331Z,-39.94
2023-05-03T05:07:44.250Z,-40.00
2023-05-03T05:08:44.930Z,-40.00
2023-05-03T05:09:44.919Z,-40.00
2023-05-03T05:10:44.909Z,-40.00
2023-05-03T05:11:44.229Z,-40.00
2023-05-03T05:12:44.891Z,-37.42
2023-05-03T05:13:44.221Z,-40.00
2023-05-03T05:14:44.868Z,-40.00
2023-05-03T05:15:44.848Z,8.28
2023-05-03T05:16:44.196Z,8.32
2023-05-03T05:17:44.344Z,8.35
2023-05-03T05:18:44.128Z,8.39
2023-05-03T05:19:44.820Z,8.39
2023-05-03T05:20:44.798Z,8.45
2023-05-03T05:21:44.789Z,8.53
2023-05-03T05:22:44.091Z,8.66
2023-05-03T05:23:44.110Z,8.75
2023-05-03T05:24:44.756Z,8.78
2023-05-03T05:25:44.728Z,-39.94
2023-05-03T05:26:44.741Z,-39.94
2023-05-03T05:27:44.728Z,-39.94
2023-05-03T05:28:44.029Z,-40.00
2023-05-03T05:29:44.012Z,-40.00
2023-05-03T05:30:44.671Z,-40.00
2023-05-03T05:31:44.746Z,-40.00
2023-05-03T05:32:44.065Z,-40.00
2023-05-03T05:33:43.963Z,-40.00
2023-05-03T05:34:45.317Z,-40.00
2023-05-03T05:35:43.955Z,-39.94
2023-05-03T05:36:44.631Z,-40.00
2023-05-03T05:37:44.618Z,-40.00
2023-05-03T05:38:44.608Z,-40.00
2023-05-03T05:39:44.593Z,-40.00
2023-05-03T05:40:44.570Z,-40.00
2023-05-03T05:41:44.577Z,-40.00
2023-05-03T05:42:44.566Z,-40.00
2023-05-03T05:43:44.549Z,-40.00
2023-05-03T05:44:44.545Z,-40.00
2023-05-03T05:45:44.510Z,-40.00
2023-05-03T05:46:44.585Z,10.71
2023-05-03T05:47:44.515Z,-40.00
2023-05-03T05:48:44.490Z,-40.00
2023-05-03T05:49:44.484Z,-40.00
2023-05-03T05:50:44.459Z,10.99
2023-05-03T05:51:43.775Z,10.94
2023-05-03T05:52:43.768Z,-40.00
2023-05-03T05:53:44.441Z,-40.00
2023-05-03T05:54:45.672Z,-40.00
2023-05-03T05:55:44.420Z,-40.00
2023-05-03T05:56:44.413Z,-40.00
2023-05-03T05:57:44.404Z,-40.00
2023-05-03T05:58:44.392Z,-40.00
2023-05-03T05:59:44.384Z,10.03
2023-05-03T06:00:44.352Z,10.09
2023-05-03T06:01:44.384Z,-39.94
2023-05-03T06:02:44.442Z,-40.00
2023-05-03T06:03:43.650Z,-40.00
2023-05-03T06:04:44.336Z,-40.00
2023-05-03T06:05:44.424Z,9.91
2023-05-03T06:06:44.350Z,9.91
2023-05-03T06:07:43.613Z,-40.00
2023-05-03T06:08:44.286Z,-40.00
2023-05-03T06:09:43.586Z,-39.94
2023-05-03T06:10:43.599Z,-40.00
2023-05-03T06:11:43.568Z,-40.00
2023-05-03T06:12:44.246Z,-40.00
2023-05-03T06:13:44.245Z,9.68
2023-05-03T06:14:55.298Z,9.71
2023-05-03T06:15:44.536Z,-40.00
2023-05-03T06:16:44.217Z,-40.00
2023-05-03T06:17:44.223Z,-40.00
2023-05-03T06:18:44.185Z,-40.00
2023-05-03T06:19:45.147Z,-40.00
2023-05-03T06:20:44.140Z,-40.00
2023-05-03T06:21:43.459Z,-40.00
2023-05-03T06:22:45.414Z,10.34
2023-05-03T06:23:44.131Z,10.34
2023-05-03T06:24:44.120Z,10.37
2023-05-03T06:25:44.083Z,10.56
2023-05-03T06:26:44.106Z,10.56
2023-05-03T06:27:43.386Z,10.39
2023-05-03T06:28:44.084Z,10.32
2023-05-03T06:29:43.385Z,10.39
2023-05-03T06:30:44.081Z,10.36
2023-05-03T06:31:43.480Z,10.42
2023-05-03T06:32:44.084Z,10.60
2023-05-03T06:33:43.331Z,10.76
2023-05-03T06:34:43.326Z,-39.94
2023-05-03T06:35:43.986Z,-40.00
2023-05-03T06:36:44.000Z,-39.94
2023-05-03T06:37:43.286Z,-40.00
2023-05-03T06:38:43.274Z,-40.00
2023-05-03T06:39:43.969Z,-40.00
2023-05-03T06:40:43.926Z,-40.00
2023-05-03T06:41:43.929Z,-40.00
2023-05-03T06:42:43.929Z,-40.00
2023-05-03T06:43:43.237Z,-40.00
2023-05-03T06:44:43.289Z,-40.00
2023-05-03T06:45:43.213Z,10.34
2023-05-03T06:46:43.349Z,-39.94
2023-05-03T06:47:43.866Z,-40.00
2023-05-03T06:48:45.140Z,-40.00
2023-05-03T06:49:43.844Z,-40.00
2023-05-03T06:50:43.162Z,-40.00
2023-05-03T06:51:43.141Z,-40.00
2023-05-03T06:52:44.053Z,-40.00
2023-05-03T06:53:43.800Z,-40.00
2023-05-03T06:54:43.791Z,-40.00
2023-05-03T06:55:45.066Z,-40.00
2023-05-03T06:56:43.769Z,-40.00
2023-05-03T06:57:43.758Z,-40.00
2023-05-03T06:58:43.749Z,-40.00
2023-05-03T06:59:43.741Z,125.00
2023-05-03T07:00:43.717Z,-39.94
2023-05-03T07:01:45.224Z,-40.00
2023-05-03T07:02:45.071Z,-40.00
2023-05-03T07:03:44.101Z,-40.00
2023-05-03T07:04:43.022Z,-40.00
2023-05-03T07:05:43.671Z,10.88
2023-05-03T07:06:55.460Z,10.84
2023-05-03T07:07:44.646Z,-39.94
2023-05-03T07:08:43.642Z,-40.00
2023-05-03T07:09:44.897Z,-40.00
2023-05-03T07:10:43.614Z,-39.94
2023-05-03T07:11:43.606Z,-40.00
2023-05-03T07:12:43.594Z,-40.00
2023-05-03T07:13:42.909Z,-40.00
2023-05-03T07:14:42.904Z,10.73
2023-05-03T07:15:43.814Z,-40.00
2023-05-03T07:16:43.862Z,-40.00
2023-05-03T07:17:43.586Z,-40.00
2023-05-03T07:18:43.773Z,10.88
2023-05-03T07:19:43.510Z,10.68
2023-05-03T07:20:43.742Z,10.66
2023-05-03T07:21:43.738Z,10.60
2023-05-03T07:22:43.487Z,-39.94
2023-05-03T07:23:43.476Z,-40.00
2023-05-03T07:24:43.497Z,-40.00
2023-05-03T07:25:42.776Z,-40.00
2023-05-03T07:26:44.509Z,10.42
2023-05-03T07:27:43.671Z,10.40
2023-05-03T07:28:42.713Z,-39.94
2023-05-03T07:29:42.749Z,-40.00
2023-05-03T07:30:43.392Z,-40.00
2023-05-03T07:31:42.704Z,-40.00
2023-05-03T07:32:43.446Z,11.13
2023-05-03T07:33:43.519Z,11.29
2023-05-03T07:34:43.333Z,11.29
2023-05-03T07:35:42.645Z,11.35
2023-05-03T07:36:43.332Z,11.36
2023-05-03T07:37:43.338Z,11.36
2023-05-03T07:38:43.311Z,11.29
2023-05-03T07:39:43.576Z,-39.94
2023-05-03T07:40:43.536Z,-40.00
2023-05-03T07:41:43.274Z,-40.00
2023-05-03T07:42:43.272Z,-40.00
2023-05-03T07:43:43.502Z,-40.00
2023-05-03T07:44:43.232Z,-40.00
2023-05-03T07:45:43.540Z,12.26
2023-05-03T07:46:43.422Z,12.52
2023-05-03T07:47:42.546Z,-39.94
2023-05-03T07:48:44.451Z,-40.00
2023-05-03T07:49:43.176Z,-40.00
2023-05-03T07:50:43.409Z,12.54
2023-05-03T07:51:42.481Z,12.49
2023-05-03T07:52:43.457Z,12.30
2023-05-03T07:53:43.390Z,-39.94
2023-05-03T07:54:43.389Z,-40.00
2023-05-03T07:55:43.125Z,-39.94
2023-05-03T07:56:43.366Z,12.08
2023-05-03T07:57:43.378Z,12.16
2023-05-03T07:58:45.026Z,12.21
2023-05-03T07:59:43.074Z,12.08
2023-05-03T08:00:43.093Z,-39.94
2023-05-03T08:01:43.070Z,-40.00
2023-05-03T08:02:43.165Z,-40.00
2023-05-03T08:03:43.632Z,11.49
2023-05-03T08:04:43.579Z,11.52
2023-05-03T08:05:43.085Z,-39.94
2023-05-03T08:06:43.076Z,-40.00
2023-05-03T08:07:42.998Z,-40.00
2023-05-03T08:08:44.245Z,12.41
2023-05-03T08:09:43.229Z,12.37
2023-05-03T08:10:42.989Z,11.96
2023-05-03T08:11:44.308Z,11.77
2023-05-03T08:12:42.958Z,-39.94
2023-05-03T08:13:42.937Z,-39.94
2023-05-03T08:14:42.907Z,-40.00
2023-05-03T08:15:43.199Z,11.87
2023-05-03T08:16:42.914Z,12.15
2023-05-03T08:17:43.377Z,12.33
2023-05-03T08:18:43.128Z,12.52
2023-05-03T08:19:42.865Z,12.70
2023-05-03T08:20:43.117Z,12.89
2023-05-03T08:21:43.101Z,-39.94
2023-05-03T08:22:43.083Z,-40.00
2023-05-03T08:23:42.832Z,-40.00
2023-05-03T08:24:42.817Z,-40.00
2023-05-03T08:25:42.823Z,-40.00
2023-05-03T08:26:42.804Z,-40.00
2023-05-03T08:27:43.073Z,-40.00
2023-05-03T08:28:42.143Z,11.71
2023-05-03T08:29:42.101Z,11.80
2023-05-03T08:30:42.091Z,11.85
2023-05-03T08:31:43.015Z,11.87
2023-05-03T08:32:42.996Z,11.93
2023-05-03T08:33:42.726Z,11.89
2023-05-03T08:34:42.969Z,11.70
2023-05-03T08:35:42.704Z,11.65
2023-05-03T08:36:42.698Z,11.72
2023-05-03T08:37:42.954Z,-39.94
2023-05-03T08:38:42.924Z,-40.00
2023-05-03T08:39:42.659Z,-40.00
2023-05-03T08:40:42.650Z,-40.00
2023-05-03T08:41:42.645Z,-40.00
2023-05-03T08:42:42.883Z,-40.00
2023-05-03T08:43:43.892Z,-40.00
2023-05-03T08:44:42.592Z,-39.94
2023-05-03T08:45:42.604Z,-40.00
2023-05-03T08:46:42.636Z,-40.00
2023-05-03T08:47:42.590Z,-40.00
2023-05-03T08:48:42.801Z,-40.00
2023-05-03T08:49:42.536Z,-40.00
2023-05-03T08:50:42.796Z,11.96
2023-05-03T08:51:42.767Z,12.02
2023-05-03T08:52:41.821Z,12.16
2023-05-03T08:53:42.506Z,12.33
2023-05-03T08:54:42.478Z,12.44
2023-05-03T08:55:42.487Z,12.62
2023-05-03T08:56:42.478Z,-39.94
2023-05-03T08:57:41.780Z,-40.00
2023-05-03T08:58:41.774Z,-40.00
2023-05-03T08:59:42.424Z,-40.00
2023-05-03T09:00:42.692Z,-40.00
2023-05-03T09:01:42.752Z,-40.00
2023-05-03T09:02:42.929Z,-40.00
2023-05-03T09:03:41.801Z,-39.94
2023-05-03T09:04:42.377Z,-40.00
2023-05-03T09:05:42.642Z,-40.00
2023-05-03T09:06:42.706Z,-19.38
2023-05-03T09:07:42.607Z,-40.00
2023-05-03T09:08:42.339Z,-40.00
2023-05-03T09:09:43.424Z,12.38
2023-05-03T09:10:42.328Z,12.04
2023-05-03T09:11:42.563Z,11.90
2023-05-03T09:12:41.608Z,11.93
2023-05-03T09:13:42.560Z,11.97
2023-05-03T09:14:42.267Z,11.86
2023-05-03T09:15:42.277Z,11.82
2023-05-03T09:16:42.321Z,11.94
2023-05-03T09:17:41.634Z,-39.94
2023-05-03T09:18:41.541Z,-40.00
2023-05-03T09:19:42.498Z,-40.00
2023-05-03T09:20:42.484Z,-40.00
2023-05-03T09:21:42.209Z,-39.94
2023-05-03T09:22:42.197Z,-40.00
2023-05-03T09:23:42.468Z,-40.00
2023-05-03T09:24:42.461Z,-40.00
2023-05-03T09:25:42.428Z,-40.00
2023-05-03T09:26:42.411Z,-39.94
2023-05-03T09:27:42.154Z,-40.00
2023-05-03T09:28:42.128Z,-40.00
2023-05-03T09:29:42.103Z,-40.00
2023-05-03T09:30:42.369Z,-40.00
2023-05-03T09:31:42.397Z,-40.00
2023-05-03T09:32:42.385Z,-40.00
2023-05-03T09:33:42.320Z,-40.00
2023-05-03T09:34:42.330Z,-40.00
2023-05-03T09:35:41.346Z,-40.00
2023-05-03T09:36:42.908Z,-40.00
2023-05-03T09:37:42.033Z,-40.00
2023-05-03T09:38:42.023Z,-40.00
2023-05-03T09:39:41.336Z,-40.00
2023-05-03T09:40:41.992Z,-40.00
2023-05-03T09:41:41.980Z,-39.94
2023-05-03T09:42:42.258Z,-40.00
2023-05-03T09:43:41.964Z,-40.00
2023-05-03T09:44:41.945Z,-40.00
2023-05-03T09:45:41.294Z,-40.00
2023-05-03T09:46:41.247Z,-39.94
2023-05-03T09:47:41.953Z,-40.00
2023-05-03T09:48:41.908Z,-40.00
2023-05-03T09:49:41.879Z,-40.00
2023-05-03T09:50:41.903Z,-40.00
2023-05-03T09:51:41.876Z,-40.00
2023-05-03T09:52:41.866Z,-40.00
2023-05-03T09:53:41.878Z,-40.00
2023-05-03T09:54:41.830Z,-40.00
2023-05-03T09:55:41.845Z,-40.00
2023-05-03T09:56:41.143Z,-40.00
2023-05-03T09:57:41.140Z,-39.94
2023-05-03T09:58:41.127Z,-40.00
2023-05-03T09:59:41.780Z,-39.94
2023-05-03T10:00:41.791Z,13.20
2023-05-03T10:01:41.155Z,13.22
2023-05-03T10:02:41.107Z,-39.94
2023-05-03T10:03:41.777Z,-40.00
2023-05-03T10:04:41.727Z,-40.00
2023-05-03T10:05:41.730Z,-40.00
2023-05-03T10:06:41.078Z,-40.00
2023-05-03T10:07:41.028Z,-40.00
2023-05-03T10:08:41.029Z,-40.00
2023-05-03T10:09:41.020Z,-40.00
2023-05-03T10:10:41.681Z,13.61
2023-05-03T10:11:40.987Z,13.29
2023-05-03T10:12:41.653Z,13.12
2023-05-03T10:13:40.963Z,-39.94
2023-05-03T10:14:40.965Z,-39.94
2023-05-03T10:15:40.954Z,-40.00
2023-05-03T10:16:40.928Z,-40.00
2023-05-03T10:17:46.936Z,-39.94
2023-05-03T10:18:42.586Z,-40.00
2023-05-03T10:19:41.561Z,-40.00
2023-05-03T10:20:41.572Z,-40.00
2023-05-03T10:21:41.556Z,-40.00
2023-05-03T10:22:41.546Z,-39.94
2023-05-03T10:23:41.517Z,-40.00
2023-05-03T10:24:40.846Z,-40.00
2023-05-03T10:25:40.853Z,-40.00
2023-05-03T10:26:41.502Z,-40.00
2023-05-03T10:27:41.494Z,-39.94
2023-05-03T10:28:41.469Z,-40.00
2023-05-03T10:29:41.476Z,-40.00
2023-05-03T10:30:40.798Z,-39.98
2023-05-03T10:31:40.808Z,-39.94
2023-05-03T10:32:41.470Z,-39.94
2023-05-03T10:33:41.423Z,-40.00
2023-05-03T10:34:41.413Z,-39.94
2023-05-03T10:35:41.426Z,-40.00
2023-05-03T10:36:49.527Z,-29.69
2023-05-03T10:37:43.132Z,-40.00
2023-05-03T10:38:41.377Z,-40.00
2023-05-03T10:39:41.364Z,-40.00
2023-05-03T10:40:40.659Z,13.65
2023-05-03T10:41:41.350Z,13.40
2023-05-03T10:42:40.643Z,13.14
2023-05-03T10:43:40.652Z,13.15
2023-05-03T10:44:41.326Z,13.22
2023-05-03T10:45:41.289Z,13.14
2023-05-03T10:46:41.401Z,13.09
2023-05-03T10:47:41.308Z,13.07
2023-05-03T10:48:41.253Z,13.03
2023-05-03T10:49:41.259Z,12.89
2023-05-03T10:50:41.268Z,12.89
2023-05-03T10:51:41.233Z,-39.94
2023-05-03T10:52:41.221Z,-40.00
2023-05-03T10:53:40.550Z,-40.00
2023-05-03T10:54:40.517Z,-40.00
2023-05-03T10:55:40.509Z,-39.94
2023-05-03T10:56:40.502Z,-40.00
2023-05-03T10:57:41.166Z,-40.00
2023-05-03T10:58:41.140Z,-40.00
2023-05-03T10:59:41.150Z,-40.00
2023-05-03T11:00:40.473Z,-40.00
2023-05-03T11:01:41.155Z,-40.00
2023-05-03T11:02:41.146Z,-39.94
2023-05-03T11:03:40.412Z,-40.00
2023-05-03T11:04:41.187Z,-40.00
2023-05-03T11:05:41.102Z,-40.00
2023-05-03T11:06:40.418Z,-40.00
2023-05-03T11:07:41.084Z,-40.00
2023-05-03T11:08:41.025Z,-40.00
2023-05-03T11:09:41.052Z,-40.00
2023-05-03T11:10:41.036Z,-39.94
2023-05-03T11:11:41.104Z,-39.94
2023-05-03T11:12:40.312Z,-40.00
2023-05-03T11:13:41.133Z,-40.00
2023-05-03T11:14:40.986Z,-40.00
2023-05-03T11:15:40.976Z,-40.00
2023-05-03T11:16:41.030Z,-39.94
2023-05-03T11:17:40.286Z,-40.00
2023-05-03T11:18:40.921Z,-40.00
2023-05-03T11:19:40.947Z,-39.94
2023-05-03T11:20:41.182Z,-40.00
2023-05-03T11:21:41.162Z,-40.00
2023-05-03T11:22:40.897Z,-40.00
2023-05-03T11:23:40.194Z,-39.94
2023-05-03T11:24:40.201Z,-39.36
2023-05-03T11:25:40.859Z,-40.00
2023-05-03T11:26:40.854Z,-39.94
2023-05-03T11:27:41.108Z,-40.00
2023-05-03T11:28:40.814Z,-40.00
2023-05-03T11:29:40.824Z,13.63
2023-05-03T11:30:40.807Z,13.70
2023-05-03T11:31:40.827Z,13.63
2023-05-03T11:32:40.824Z,13.70
2023-05-03T11:33:40.759Z,13.74
2023-05-03T11:34:40.094Z,13.83
2023-05-03T11:35:40.073Z,13.83
2023-05-03T11:36:40.756Z,13.74
2023-05-03T11:37:40.740Z,13.71
2023-05-03T11:38:40.708Z,13.70
2023-05-03T11:39:40.719Z,-39.94
2023-05-03T11:40:40.702Z,-40.00
2023-05-03T11:41:40.027Z,-39.94
2023-05-03T11:42:40.968Z,-39.94
2023-05-03T11:43:40.666Z,-40.00
2023-05-03T11:44:40.653Z,-40.00
2023-05-03T11:45:40.691Z,-40.00
2023-05-03T11:46:40.694Z,-40.00
2023-05-03T11:47:40.685Z,-39.94
2023-05-03T11:48:39.950Z,-40.00
2023-05-03T11:49:40.627Z,13.40
2023-05-03T11:50:39.885Z,13.58
2023-05-03T11:51:40.578Z,13.71
2023-05-03T11:52:40.595Z,13.70
2023-05-03T11:53:39.898Z,-39.94
2023-05-03T11:54:40.552Z,-40.00
2023-05-03T11:55:39.858Z,-40.00
2023-05-03T11:56:40.546Z,-40.00
2023-05-03T11:57:40.527Z,-40.00
2023-05-03T11:58:39.839Z,-40.00
2023-05-03T11:59:40.827Z,-40.00
2023-05-03T12:00:39.817Z,-40.00
2023-05-03T12:01:39.821Z,-40.00
2023-05-03T12:02:40.745Z,-40.00
2023-05-03T12:03:40.849Z,-40.00
2023-05-03T12:04:39.951Z,-40.00
2023-05-03T12:05:41.086Z,-40.00
2023-05-03T12:06:40.758Z,-39.94
2023-05-03T12:07:40.897Z,-40.00
2023-05-03T12:08:43.227Z,-40.00
2023-05-03T12:09:41.726Z,-40.00
2023-05-03T12:10:42.743Z,-40.00
2023-05-03T12:11:40.856Z,-39.94
2023-05-03T12:12:42.743Z,-40.00
2023-05-03T12:13:41.697Z,-39.96
2023-05-03T12:14:41.842Z,-40.00
2023-05-03T12:15:40.996Z,-39.94
2023-05-03T12:16:39.722Z,-40.00
2023-05-03T12:17:43.938Z,14.13
2023-05-03T12:18:41.173Z,14.12
2023-05-03T12:19:40.527Z,14.06
2023-05-03T12:21:42.044Z,14.17
2023-05-03T12:22:39.864Z,14.17
2023-05-03T12:23:39.679Z,14.20
2023-05-03T12:24:39.831Z,14.25
2023-05-03T12:25:41.180Z,14.29
2023-05-03T12:26:41.330Z,14.31
2023-05-03T12:27:40.751Z,14.34
2023-05-03T12:28:39.596Z,14.21
2023-05-03T12:29:41.767Z,14.20
2023-05-03T12:30:40.943Z,14.19
2023-05-03T12:31:39.713Z,14.21
2023-05-03T12:32:40.289Z,14.32
2023-05-03T12:33:43.349Z,14.12
2023-05-03T12:34:41.338Z,14.12
2023-05-03T12:35:41.156Z,14.17
2023-05-03T12:36:42.047Z,14.29
2023-05-03T12:37:42.515Z,-39.94
2023-05-03T12:38:43.528Z,-40.00
2023-05-03T12:39:40.767Z,-40.00
2023-05-03T12:40:40.207Z,-40.00
2023-05-03T12:42:06.141Z,-40.00